createdAt,value
2023-01-15T00:03:05.912Z,36.50
2023-01-15T00:13:10.999Z,36.40
2023-01-15T00:18:13.184Z,36.40
2023-01-15T00:23:35.278Z,36.20
2023-01-15T00:33:39.957Z,36.20
2023-01-15T00:43:44.691Z,36.60
2023-01-15T00:48:47.676Z,36.40
2023-01-15T00:53:49.866Z,36.40
2023-01-15T00:58:52.064Z,36.50
2023-01-15T01:03:54.355Z,36.60
2023-01-15T01:08:57.910Z,36.40
2023-01-15T01:14:02.223Z,36.60
2023-01-15T01:19:08.919Z,36.60
2023-01-15T01:24:13.242Z,36.60
2023-01-15T01:29:21.474Z,36.60
2023-01-15T01:34:23.688Z,36.50
2023-01-15T01:39:25.949Z,36.60
2023-01-15T01:44:37.371Z,36.50
2023-01-15T01:49:40.512Z,36.30
2023-01-15T01:54:46.374Z,36.50
2023-01-15T01:59:49.639Z,36.50
2023-01-15T02:04:52.692Z,36.30
2023-01-15T02:09:54.874Z,36.20
2023-01-15T02:15:26.486Z,36.30
2023-01-15T02:20:42.306Z,36.20
2023-01-15T02:25:50.555Z,36.10
2023-01-15T02:31:10.832Z,36.40
2023-01-15T02:36:16.125Z,36.10
2023-01-15T02:41:23.406Z,35.20
2023-01-15T02:46:30.954Z,35.60
2023-01-15T02:52:04.926Z,35.20
2023-01-15T02:57:10.105Z,35.10
2023-01-15T03:02:20.968Z,31.80
2023-01-15T03:07:32.206Z,32.30
2023-01-15T03:13:17.161Z,31.20
2023-01-15T03:18:21.925Z,31.90
2023-01-15T03:23:27.261Z,32.20
2023-01-15T03:28:33.661Z,32.20
2023-01-15T03:33:36.481Z,32.40
2023-01-15T03:38:41.248Z,32.50
2023-01-15T03:49:36.637Z,32.20
2023-01-15T03:54:50.386Z,32.50
2023-01-15T04:00:01.131Z,32.00
2023-01-15T04:05:06.602Z,31.80
2023-01-15T04:10:10.337Z,31.70
2023-01-15T04:15:13.565Z,31.70
2023-01-15T04:20:16.110Z,31.90
2023-01-15T04:25:19.140Z,31.80
2023-01-15T04:30:21.781Z,31.90
2023-01-15T04:35:23.827Z,31.90
2023-01-15T04:40:45.481Z,31.50
2023-01-15T04:45:47.950Z,31.70
2023-01-15T04:50:50.160Z,32.00
2023-01-15T04:55:52.243Z,31.70
2023-01-15T05:00:54.645Z,31.70
2023-01-15T05:06:01.802Z,31.70
2023-01-15T05:11:06.583Z,31.90
2023-01-15T05:16:15.439Z,31.80
2023-01-15T05:21:24.682Z,31.80
2023-01-15T05:26:28.053Z,31.40
2023-01-15T05:31:31.169Z,31.10
2023-01-15T05:36:33.414Z,30.90
2023-01-15T05:41:51.651Z,30.80
2023-01-15T05:46:56.640Z,30.70
2023-01-15T05:52:00.578Z,30.90
2023-01-15T06:02:05.791Z,30.50
2023-01-15T06:07:07.917Z,30.30
2023-01-15T06:12:10.101Z,30.10
2023-01-15T06:17:12.411Z,29.50
2023-01-15T06:22:14.524Z,29.70
2023-01-15T06:27:16.598Z,30.00
2023-01-15T06:32:18.728Z,29.90
2023-01-15T06:37:20.883Z,29.40
2023-01-15T06:42:41.423Z,29.50
2023-01-15T06:47:43.616Z,29.70
2023-01-15T06:52:45.839Z,29.70
2023-01-15T06:57:48.017Z,29.70
2023-01-15T07:02:50.144Z,29.90
2023-01-15T07:07:52.585Z,29.80
2023-01-15T07:12:54.627Z,28.80
2023-01-15T07:17:57.815Z,28.40
2023-01-15T07:23:00.276Z,28.80
2023-01-15T07:28:02.396Z,29.20
2023-01-15T07:38:07.223Z,29.60
2023-01-15T07:43:29.084Z,29.20
2023-01-15T07:48:49.719Z,29.20
2023-01-15T07:53:51.918Z,29.20
2023-01-15T07:58:54.044Z,29.20
2023-01-15T08:03:56.198Z,29.00
2023-01-15T08:08:58.611Z,28.80
2023-01-15T08:19:22.498Z,28.90
2023-01-15T08:24:24.865Z,28.90
2023-01-15T08:29:27.883Z,29.00
2023-01-15T08:39:32.565Z,29.20
2023-01-15T08:49:38.130Z,29.20
2023-01-15T08:54:42.099Z,28.70
2023-01-15T08:59:44.605Z,29.30
2023-01-15T09:04:46.802Z,29.40
2023-01-15T09:09:49.001Z,29.00
2023-01-15T09:20:04.869Z,28.30
2023-01-15T09:25:07.223Z,29.10
2023-01-15T09:30:17.185Z,28.90
2023-01-15T09:35:19.352Z,29.00
2023-01-15T09:40:36.192Z,28.10
2023-01-15T09:45:47.960Z,27.40
2023-01-15T09:51:13.327Z,27.60
2023-01-15T09:56:28.818Z,27.60
2023-01-15T10:01:33.671Z,27.10
2023-01-15T10:12:07.981Z,26.30
2023-01-15T10:17:28.338Z,26.50
2023-01-15T10:23:01.736Z,26.70
2023-01-15T10:33:41.161Z,26.80
2023-01-15T10:38:51.052Z,26.90
2023-01-15T10:44:10.067Z,26.70
2023-01-15T10:49:17.727Z,27.00
2023-01-15T10:54:47.330Z,26.90
2023-01-15T10:59:56.952Z,27.10
2023-01-15T11:10:03.268Z,27.10
2023-01-15T11:15:32.685Z,27.30
2023-01-15T11:20:43.108Z,27.40
2023-01-15T11:25:55.441Z,27.90
2023-01-15T11:30:59.268Z,28.20
2023-01-15T11:36:08.082Z,28.30
2023-01-15T11:41:48.448Z,28.40
2023-01-15T11:47:14.100Z,28.50
2023-01-15T11:52:24.981Z,29.30
2023-01-15T11:57:31.179Z,29.30
2023-01-15T12:02:40.581Z,29.50
2023-01-15T12:07:44.559Z,29.70
2023-01-15T12:13:12.232Z,29.50
2023-01-15T12:18:42.168Z,29.40
2023-01-15T12:28:59.748Z,29.70
2023-01-15T12:34:33.997Z,29.90
2023-01-15T12:39:49.359Z,29.70
2023-01-15T12:45:08.435Z,29.40
2023-01-15T12:50:30.238Z,28.10
2023-01-15T12:55:37.957Z,27.30
2023-01-15T13:00:43.675Z,27.50
2023-01-15T13:06:00.200Z,26.00
2023-01-15T13:11:02.312Z,26.30
2023-01-15T13:16:24.176Z,23.60
2023-01-15T13:21:30.710Z,23.00
2023-01-15T13:26:54.916Z,24.50
2023-01-15T13:32:14.527Z,24.00
2023-01-15T13:37:20.708Z,21.50
2023-01-15T13:42:37.921Z,21.30
2023-01-15T13:47:47.455Z,20.40
2023-01-15T13:52:49.703Z,20.80
2023-01-15T13:57:52.263Z,19.30
2023-01-15T14:02:57.535Z,18.90
2023-01-15T14:08:01.532Z,18.70
2023-01-15T14:13:20.060Z,20.10
2023-01-15T14:18:39.156Z,19.40
2023-01-15T14:23:55.220Z,19.60
2023-01-15T14:29:06.291Z,20.00
2023-01-15T14:34:24.529Z,20.10
2023-01-15T14:39:32.447Z,20.10
2023-01-15T14:44:43.431Z,20.20
2023-01-15T14:49:49.818Z,20.20
2023-01-15T14:54:54.109Z,20.70
2023-01-15T15:00:04.132Z,20.20
2023-01-15T15:05:11.283Z,20.00
2023-01-15T15:10:39.842Z,20.10
2023-01-15T15:15:53.972Z,20.50
2023-01-15T15:21:06.367Z,20.70
2023-01-15T15:26:19.845Z,20.50
2023-01-15T15:31:26.087Z,20.80
2023-01-15T15:36:31.946Z,20.80
2023-01-15T15:41:56.238Z,20.80
2023-01-15T15:52:23.980Z,22.40
2023-01-15T15:57:29.202Z,22.40
2023-01-15T16:02:37.783Z,23.00
2023-01-15T16:07:40.012Z,23.00
2023-01-15T16:12:51.936Z,23.00
2023-01-15T16:17:54.989Z,22.90
2023-01-15T16:23:00.807Z,22.90
2023-01-15T16:28:04.401Z,23.00
2023-01-15T16:33:07.672Z,23.00
2023-01-15T16:38:19.999Z,22.40
2023-01-15T16:43:25.104Z,22.70
2023-01-15T16:48:46.242Z,22.90
2023-01-15T16:53:48.363Z,22.90
2023-01-15T16:58:51.221Z,22.90
2023-01-15T17:03:53.719Z,22.80
2023-01-15T17:08:58.258Z,22.80
2023-01-15T17:14:11.654Z,22.70
2023-01-15T17:19:17.511Z,22.80
2023-01-15T17:24:19.685Z,22.80
2023-01-15T17:29:21.776Z,22.70
2023-01-15T17:34:25.678Z,22.80
2023-01-15T17:39:27.778Z,22.80
2023-01-15T17:44:29.941Z,22.70
2023-01-15T17:49:32.135Z,22.80
2023-01-15T17:54:52.756Z,22.70
2023-01-15T18:00:13.604Z,22.70
2023-01-15T18:05:25.754Z,22.50
2023-01-15T18:10:27.923Z,22.50
2023-01-15T18:15:30.248Z,22.60
2023-01-15T18:20:32.956Z,22.60
2023-01-15T18:25:35.580Z,22.40
2023-01-15T18:30:38.051Z,22.40
2023-01-15T18:40:42.954Z,22.70
2023-01-15T18:46:07.200Z,22.80
2023-01-15T18:51:10.509Z,23.10
2023-01-15T19:01:35.825Z,23.40
2023-01-15T19:06:39.676Z,23.50
2023-01-15T19:11:43.270Z,24.00
2023-01-15T19:17:04.286Z,23.50
2023-01-15T19:22:24.857Z,23.60
2023-01-15T19:27:27.326Z,24.00
2023-01-15T19:32:31.808Z,24.20
2023-01-15T19:37:39.408Z,24.30
2023-01-15T19:43:00.284Z,24.50
2023-01-15T19:48:21.536Z,24.50
2023-01-15T19:53:23.872Z,24.90
2023-01-15T19:58:26.041Z,24.50
2023-01-15T20:03:28.210Z,24.60
2023-01-15T20:08:32.244Z,25.10
2023-01-15T20:13:51.381Z,24.80
2023-01-15T20:18:55.585Z,25.10
2023-01-15T20:23:57.739Z,25.10
2023-01-15T20:28:59.820Z,25.00
2023-01-15T20:34:02.042Z,24.90
2023-01-15T20:39:04.618Z,24.90
2023-01-15T20:44:25.303Z,24.60
2023-01-15T20:49:29.036Z,24.60
2023-01-15T20:54:31.344Z,25.10
2023-01-15T20:59:33.502Z,25.10
2023-01-15T21:04:35.738Z,25.10
2023-01-15T21:09:37.893Z,25.20
2023-01-15T21:14:40.069Z,25.20
2023-01-15T21:19:42.323Z,25.20
2023-01-15T21:24:44.547Z,25.00
2023-01-15T21:29:48.137Z,25.30
2023-01-15T21:34:50.563Z,25.30
2023-01-15T21:44:55.214Z,25.40
2023-01-15T21:49:59.044Z,25.40
2023-01-15T21:55:01.360Z,25.40
2023-01-15T22:00:04.182Z,25.40
2023-01-15T22:05:10.215Z,25.20
2023-01-15T22:10:12.348Z,25.00
2023-01-15T22:15:16.191Z,25.00
2023-01-15T22:20:18.975Z,24.90
2023-01-15T22:25:21.744Z,24.80
2023-01-15T22:30:23.902Z,24.80
2023-01-15T22:35:26.841Z,24.80
2023-01-15T22:40:29.033Z,24.80
2023-01-15T22:45:31.188Z,24.60
2023-01-15T22:55:36.458Z,24.50
2023-01-15T23:05:41.092Z,24.80
2023-01-15T23:10:45.746Z,24.70
2023-01-15T23:15:59.488Z,25.00
2023-01-15T23:21:08.015Z,24.90
2023-01-15T23:26:15.775Z,24.90
2023-01-15T23:31:19.813Z,24.90
2023-01-15T23:36:22.812Z,24.90
2023-01-15T23:41:44.236Z,25.20
2023-01-15T23:46:48.155Z,25.20
2023-01-15T23:51:50.598Z,25.10
2023-01-15T23:56:52.975Z,25.10
